Time;durP1;ratioP1;P1;durP2;ratioP2;P2;SDS_P1;SDS_P2;PMS_P1;PMS_P2;Temp;Humidity;BMP_temperature;BMP_pressure;BME280_temperature;BME280_humidity;BME280_pressure;Samples;Min_cycle;Max_cycle;Signal;HPM_P1;HPM_P2
2022/01/11 00:02:12;;;;;;;21.05;8.82;;;;;;;-0.95;79.57;101033.66;5590385;31;33969;-66
2022/01/11 00:05:23;;;;;;;23.12;9.00;;;;;;;-0.89;79.28;101030.75;5590235;31;33965;-67
2022/01/11 00:08:31;;;;;;;17.80;8.68;;;;;;;-0.90;79.33;101039.47;5590234;31;35253;-66
2022/01/11 00:11:35;;;;;;;20.77;9.75;;;;;;;-1.03;80.16;101031.47;5590583;31;33935;-66
2022/01/11 00:14:38;;;;;;;24.25;11.40;;;;;;;-0.95;79.54;101036.28;5590211;31;33431;-66
2022/01/11 00:17:41;;;;;;;20.15;9.98;;;;;;;-1.00;79.93;101043.47;5589443;31;33584;-66
2022/01/11 00:20:44;;;;;;;23.67;10.93;;;;;;;-1.07;79.98;101040.34;5590456;31;34795;-66
2022/01/11 00:26:49;;;;;;;20.45;9.02;;;;;;;-1.18;80.76;101045.25;5590030;31;35275;-66
2022/01/11 00:29:54;;;;;;;22.00;9.57;;;;;;;-1.16;80.88;101048.59;5590085;31;34525;-66
2022/01/11 00:33:01;;;;;;;21.25;9.00;;;;;;;-1.15;80.44;101052.91;5590066;31;34024;-66
2022/01/11 00:36:07;;;;;;;18.27;8.23;;;;;;;-1.08;79.73;101056.03;5590106;31;33444;-66
2022/01/11 00:39:11;;;;;;;19.05;8.45;;;;;;;-0.97;79.05;101058.97;5589962;31;33979;-66
2022/01/11 00:42:14;;;;;;;19.73;8.27;;;;;;;-0.91;78.67;101061.22;5589954;31;33965;-66
2022/01/11 00:45:17;;;;;;;15.25;7.70;;;;;;;-0.85;78.31;101063.53;5590296;31;34393;-66
2022/01/11 00:48:20;;;;;;;19.02;8.45;;;;;;;-0.82;78.02;101072.97;5589770;31;34408;-67
2022/01/11 00:51:23;;;;;;;19.60;8.15;;;;;;;-0.93;78.38;101071.75;5589829;31;33951;-66
2022/01/11 00:54:26;;;;;;;21.37;8.07;;;;;;;-0.84;78.01;101080.84;5589820;31;34156;-66
2022/01/11 00:57:28;;;;;;;17.42;7.87;;;;;;;-0.73;77.38;101088.97;5589801;31;34026;-66
2022/01/11 01:00:34;;;;;;;19.55;9.43;;;;;;;-0.76;77.24;101088.25;5589884;31;34328;-65
2022/01/11 01:03:37;;;;;;;17.45;7.70;;;;;;;-0.76;77.12;101102.13;5590054;31;34590;-66
2022/01/11 01:06:41;;;;;;;17.33;7.90;;;;;;;-0.67;76.65;101104.25;5590065;31;33967;-66
2022/01/11 01:09:57;;;;;;;14.52;7.00;;;;;;;-0.74;77.20;101102.06;5590092;31;34057;-66
2022/01/11 01:13:04;;;;;;;17.60;7.97;;;;;;;-0.83;77.49;101102.53;5589708;31;34227;-66
2022/01/11 01:16:08;;;;;;;19.00;8.10;;;;;;;-0.87;78.12;101110.47;5589207;31;34576;-66
2022/01/11 01:19:13;;;;;;;15.30;8.25;;;;;;;-0.90;78.64;101110.66;5590000;31;33998;-66
2022/01/11 01:22:15;;;;;;;18.87;8.85;;;;;;;-0.97;78.87;101111.03;5589597;31;33949;-66
2022/01/11 01:25:20;;;;;;;17.80;8.43;;;;;;;-1.04;78.90;101115.72;5589449;31;34068;-66
2022/01/11 01:28:24;;;;;;;18.25;7.97;;;;;;;-1.13;78.81;101123.12;5589534;31;34440;-66
2022/01/11 01:31:28;;;;;;;16.25;6.90;;;;;;;-1.13;78.52;101121.37;5588806;31;34021;-66
2022/01/11 01:34:31;;;;;;;17.70;7.43;;;;;;;-1.01;77.41;101119.91;5589507;31;34167;-67
2022/01/11 01:37:33;;;;;;;19.35;7.10;;;;;;;-1.15;77.62;101125.78;5589019;31;33960;-66
2022/01/11 01:40:43;;;;;;;23.02;7.50;;;;;;;-1.21;77.79;101122.66;5589443;31;34089;-66
2022/01/11 01:43:49;;;;;;;17.10;7.55;;;;;;;-1.18;nan;101122.50;5589452;31;34271;-66
2022/01/11 01:46:52;;;;;;;18.60;7.00;;;;;;;-1.19;77.30;101118.22;5589327;31;33903;-66
2022/01/11 01:49:55;;;;;;;16.73;8.07;;;;;;;-1.07;76.79;101122.84;5569656;32;34367;-67
2022/01/11 01:53:01;;;;;;;15.73;6.90;;;;;;;-1.13;76.46;101123.97;5569685;32;34750;-66
2022/01/11 01:56:05;;;;;;;18.33;6.85;;;;;;;-1.08;76.54;101128.94;5569561;32;34163;-66
2022/01/11 01:59:08;;;;;;;15.65;7.22;;;;;;;-1.15;76.79;101122.34;5569825;32;34651;-66
2022/01/11 02:02:13;;;;;;;18.67;8.45;;;;;;;-1.04;75.66;101118.31;5555823;32;34041;-66
2022/01/11 02:05:17;;;;;;;16.90;8.35;;;;;;;-1.02;75.44;101129.50;5569448;32;33994;-66
2022/01/11 02:08:20;;;;;;;16.75;6.78;;;;;;;-1.01;75.30;101122.50;5569389;32;33955;-66
2022/01/11 02:11:24;;;;;;;13.30;6.62;;;;;;;-0.95;74.70;101130.03;5569684;32;33960;-66
2022/01/11 02:14:26;;;;;;;17.12;7.03;;;;;;;-0.94;74.76;101127.34;5569275;32;33936;-66
2022/01/11 02:17:32;;;;;;;16.50;6.57;;;;;;;-0.95;74.77;101132.63;5569176;32;34011;-66
2022/01/11 02:20:40;;;;;;;16.12;6.62;;;;;;;-1.09;75.51;101133.31;5569167;32;34375;-66
2022/01/11 02:23:43;;;;;;;14.57;6.95;;;;;;;-1.16;75.66;101139.72;5569326;32;34113;-67
2022/01/11 02:26:46;;;;;;;15.75;7.12;;;;;;;-1.06;75.29;101134.91;5569129;32;34141;-66
2022/01/11 02:29:50;;;;;;;14.98;6.87;;;;;;;-1.06;75.35;101133.16;5569295;32;34553;-66
2022/01/11 02:32:52;;;;;;;15.20;7.28;;;;;;;-1.10;75.53;101126.41;5568955;32;33910;-66
2022/01/11 02:35:56;;;;;;;13.15;6.70;;;;;;;-1.13;75.57;101126.56;5564371;32;146861;-66
2022/01/11 02:38:59;;;;;;;17.80;7.05;;;;;;;-1.10;75.67;101133.38;5568794;32;34588;-66
2022/01/11 02:42:03;;;;;;;13.32;6.40;;;;;;;-1.14;75.63;101129.25;5569138;32;33987;-66
2022/01/11 02:45:13;;;;;;;15.57;7.50;;;;;;;-1.23;75.87;101127.09;5568844;32;34128;-66
2022/01/11 02:48:17;;;;;;;15.02;6.55;;;;;;;-1.46;76.56;101131.66;5580525;31;34255;-67
2022/01/11 02:51:19;;;;;;;16.52;7.30;;;;;;;-1.45;77.42;101135.09;5590912;31;34613;-66
2022/01/11 02:54:23;;;;;;;13.68;7.07;;;;;;;-1.55;77.88;101134.69;5590558;31;34227;-66
2022/01/11 02:57:27;;;;;;;14.60;6.28;;;;;;;-1.47;77.58;101134.31;5591054;31;34812;-66
2022/01/11 03:00:30;;;;;;;16.27;7.32;;;;;;;-1.48;77.50;101140.44;5590917;31;34020;-66
2022/01/11 03:03:34;;;;;;;16.33;7.82;;;;;;;-1.54;77.57;101141.56;5591312;31;33957;-66
2022/01/11 03:06:37;;;;;;;14.45;6.32;;;;;;;-1.51;77.09;101138.00;5591041;31;34562;-66
2022/01/11 03:09:59;;;;;;;13.00;6.28;;;;;;;-1.48;77.40;101149.09;5590671;31;34011;-66
2022/01/11 03:13:04;;;;;;;15.70;6.82;;;;;;;-1.38;77.00;101150.34;5591132;31;33955;-66
2022/01/11 03:16:08;;;;;;;12.82;6.20;;;;;;;-1.31;76.86;101154.31;5590786;31;34108;-66
2022/01/11 03:19:11;;;;;;;13.62;6.35;;;;;;;-1.29;76.76;101149.06;5590693;31;34393;-66
2022/01/11 03:22:14;;;;;;;14.32;6.55;;;;;;;-1.28;76.45;101160.31;5590684;31;34440;-66
2022/01/11 03:25:18;;;;;;;13.00;6.90;;;;;;;-1.23;76.21;101163.53;5590670;31;34623;-67
2022/01/11 03:28:22;;;;;;;16.60;6.43;;;;;;;-1.19;75.86;101159.88;5590887;31;34772;-66
2022/01/11 03:31:26;;;;;;;12.73;6.35;;;;;;;-1.16;75.55;101164.94;5590617;31;33944;-67
2022/01/11 03:34:29;;;;;;;16.67;6.78;;;;;;;-1.24;75.58;101172.25;5590498;31;34113;-66
2022/01/11 03:37:32;;;;;;;13.88;6.87;;;;;;;-1.40;75.83;101174.75;5590868;31;34000;-66
2022/01/11 03:40:35;;;;;;;15.43;7.35;;;;;;;-1.43;76.11;101178.34;5590060;31;33953;-66
2022/01/11 03:43:40;;;;;;;15.52;7.80;;;;;;;-1.33;75.62;101173.56;5590015;31;34011;-66
2022/01/11 03:46:45;;;;;;;15.93;7.12;;;;;;;-1.36;75.67;101179.75;5590745;31;33923;-66
2022/01/11 03:49:48;;;;;;;14.63;7.47;;;;;;;-1.24;75.42;101191.31;5590567;31;35272;-66
2022/01/11 03:53:09;;;;;;;16.73;7.50;;;;;;;-1.32;75.38;101188.25;5590334;31;34687;-66
2022/01/11 03:56:21;;;;;;;15.80;7.28;;;;;;;-1.45;75.17;101184.53;5590504;31;34066;-66
2022/01/11 03:59:25;;;;;;;15.38;7.62;;;;;;;-1.37;74.21;101188.47;5589838;31;34835;-66
2022/01/11 04:02:28;;;;;;;14.80;6.70;;;;;;;-1.35;74.04;101191.00;5590188;31;33901;-66
2022/01/11 04:05:32;;;;;;;14.70;6.60;;;;;;;-1.51;74.35;101196.09;5590203;31;35178;-66
2022/01/11 04:08:35;;;;;;;13.13;6.35;;;;;;;-1.58;75.47;101202.47;5590576;31;33898;-66
2022/01/11 04:11:38;;;;;;;14.73;6.82;;;;;;;-1.61;75.79;101206.97;5590228;31;33948;-66
2022/01/11 04:14:42;;;;;;;17.30;6.97;;;;;;;-1.72;75.96;101209.22;5590186;31;34406;-66
2022/01/11 04:17:45;;;;;;;13.40;6.50;;;;;;;-1.80;75.60;101212.19;5590114;31;33862;-66
2022/01/11 04:20:48;;;;;;;12.88;6.70;;;;;;;-1.84;76.46;101206.25;5590460;31;34285;-66
2022/01/11 04:23:53;;;;;;;15.75;7.30;;;;;;;-2.00;76.98;101210.47;5589471;31;34332;-66
2022/01/11 04:26:56;;;;;;;16.02;7.00;;;;;;;-2.15;77.60;101210.28;5590038;31;33947;-66
2022/01/11 04:29:59;;;;;;;13.40;6.70;;;;;;;-2.26;78.37;101216.78;5590155;31;34171;-66
2022/01/11 04:33:02;;;;;;;15.57;6.82;;;;;;;-2.27;79.01;101222.06;5590019;31;34644;-66
2022/01/11 04:36:05;;;;;;;13.90;6.40;;;;;;;-2.06;77.50;101226.34;5590228;31;34650;-66
2022/01/11 04:39:10;;;;;;;15.93;6.55;;;;;;;-1.93;76.98;101230.06;5590325;31;34061;-66
2022/01/11 04:42:14;;;;;;;14.57;6.30;;;;;;;-1.85;75.77;101238.41;5590266;31;34626;-67
2022/01/11 04:45:17;;;;;;;16.87;6.53;;;;;;;-1.70;74.35;101236.03;5590398;31;33952;-66
2022/01/11 04:48:21;;;;;;;13.98;6.30;;;;;;;-1.70;73.38;101239.47;5589611;31;34093;-67
2022/01/11 04:51:24;;;;;;;13.98;6.97;;;;;;;-1.66;72.92;101241.03;5590259;31;34376;-66
2022/01/11 04:54:27;;;;;;;17.83;7.00;;;;;;;-1.51;72.63;101248.13;5589853;31;33922;-66
2022/01/11 04:57:30;;;;;;;14.65;6.90;;;;;;;-1.44;72.07;101251.28;5590027;31;34037;-66
2022/01/11 05:00:34;;;;;;;16.08;7.55;;;;;;;-1.47;72.15;101260.09;5590111;31;34236;-66
2022/01/11 05:03:37;;;;;;;16.60;8.02;;;;;;;-1.51;72.25;101263.75;5590188;31;33934;-66
2022/01/11 05:06:40;;;;;;;16.55;7.43;;;;;;;-1.50;71.76;101264.59;5589544;31;33969;-66
2022/01/11 05:09:42;;;;;;;18.85;8.52;;;;;;;-1.47;71.62;101267.87;5589295;31;33979;-66
2022/01/11 05:12:46;;;;;;;16.33;7.53;;;;;;;-1.50;71.51;101272.41;5589661;31;34108;-66
2022/01/11 05:15:49;;;;;;;15.70;7.93;;;;;;;-1.55;71.90;101284.78;5590063;31;34150;-66
2022/01/11 05:18:52;;;;;;;16.30;8.30;;;;;;;-1.65;72.29;101286.09;5588921;31;33988;-66
2022/01/11 05:21:54;;;;;;;19.33;8.68;;;;;;;-1.73;72.65;101281.22;5589547;31;34638;-66
2022/01/11 05:24:57;;;;;;;18.65;8.65;;;;;;;-1.73;72.68;101295.97;5589759;31;35495;-66
2022/01/11 05:28:00;;;;;;;20.55;8.52;;;;;;;-1.80;73.14;101304.06;5589551;31;34078;-66
2022/01/11 05:31:04;;;;;;;15.77;8.32;;;;;;;-1.87;73.31;101296.56;5589714;31;34203;-66
2022/01/11 05:34:06;;;;;;;17.65;8.85;;;;;;;-1.82;73.26;101311.06;5589398;31;33947;-66
2022/01/11 05:37:10;;;;;;;22.95;9.20;;;;;;;-1.82;73.58;101318.03;5589384;31;33896;-66
2022/01/11 05:40:14;;;;;;;18.15;9.40;;;;;;;-1.90;74.38;101315.78;5589346;31;33948;-67
2022/01/11 05:43:18;;;;;;;18.77;9.50;;;;;;;-2.02;76.40;101325.81;5589373;31;34029;-66
2022/01/11 05:46:23;;;;;;;18.25;9.98;;;;;;;-2.07;76.45;101341.63;5589127;31;34660;-67
2022/01/11 05:49:26;;;;;;;20.83;9.55;;;;;;;-2.21;77.25;101334.41;5588909;31;34616;-67
2022/01/11 05:52:29;;;;;;;22.00;9.93;;;;;;;-2.32;77.66;101335.75;5589203;31;33986;-67
2022/01/11 05:55:32;;;;;;;19.05;9.85;;;;;;;-2.36;78.19;101342.81;5589105;31;34691;-67
2022/01/11 05:58:36;;;;;;;22.13;10.15;;;;;;;-2.31;78.11;101350.44;5588970;31;33904;-67
2022/01/11 06:01:39;;;;;;;18.27;8.98;;;;;;;-2.31;77.90;101350.44;5588793;31;34616;-67
2022/01/11 06:04:42;;;;;;;18.37;9.07;;;;;;;-2.31;76.71;101358.22;5588088;31;33928;-66
2022/01/11 06:07:45;;;;;;;20.52;8.77;;;;;;;-2.20;75.81;101358.66;5588836;31;33888;-67
2022/01/11 06:10:49;;;;;;;15.15;7.95;;;;;;;-2.36;76.68;101352.37;5588184;31;34622;-67
2022/01/11 06:13:54;;;;;;;17.87;8.30;;;;;;;-2.31;75.87;101360.84;5588428;31;34641;-67
2022/01/11 06:16:57;;;;;;;18.48;8.93;;;;;;;-2.33;75.45;101371.31;5588107;31;34035;-66
2022/01/11 06:20:05;;;;;;;19.12;8.77;;;;;;;-2.31;75.56;101372.06;5588649;31;34829;-67
2022/01/11 06:23:09;;;;;;;18.40;8.13;;;;;;;-2.46;76.00;101383.06;5591090;31;33991;-66
2022/01/11 06:26:13;;;;;;;20.15;8.43;;;;;;;-2.26;75.28;101385.72;5590816;31;34028;-67
2022/01/11 06:29:16;;;;;;;17.95;8.80;;;;;;;-2.23;75.21;101397.78;5590552;31;34478;-66
2022/01/11 06:32:19;;;;;;;19.25;8.32;;;;;;;-2.21;75.47;101401.97;5590151;31;35017;-66
2022/01/11 06:35:23;;;;;;;16.23;8.15;;;;;;;-2.41;76.61;101401.94;5589931;31;34411;-67
2022/01/11 06:38:26;;;;;;;20.55;9.57;;;;;;;-2.37;77.22;101416.47;5591039;31;33970;-66
2022/01/11 06:41:30;;;;;;;19.02;8.70;;;;;;;-2.31;76.81;101413.66;5591090;31;33897;-66
2022/01/11 06:44:32;;;;;;;19.65;8.60;;;;;;;-2.32;76.18;101417.16;5590655;31;35141;-67
2022/01/11 06:47:35;;;;;;;18.40;8.50;;;;;;;-2.37;76.27;101433.84;5590504;31;33956;-67
2022/01/11 06:50:38;;;;;;;15.65;8.07;;;;;;;-2.37;76.08;101434.69;5590232;31;33981;-67
2022/01/11 06:53:41;;;;;;;17.83;8.73;;;;;;;-2.28;75.44;101436.94;5590919;31;34285;-67
2022/01/11 06:56:44;;;;;;;17.98;8.27;;;;;;;-2.27;75.38;101448.16;5590517;31;34601;-66
2022/01/11 06:59:48;;;;;;;17.00;8.05;;;;;;;-2.39;75.68;101448.66;5590586;31;34698;-67
2022/01/11 07:02:51;;;;;;;20.02;8.48;;;;;;;-2.26;75.37;101447.25;5590301;31;34749;-67
2022/01/11 07:05:55;;;;;;;18.48;8.40;;;;;;;-2.24;75.20;101448.91;5590939;31;33918;-67
2022/01/11 07:08:58;;;;;;;17.73;8.68;;;;;;;-2.26;75.28;101461.09;5590500;31;34432;-67
2022/01/11 07:12:02;;;;;;;15.65;8.13;;;;;;;-2.24;74.95;101453.25;5590392;31;34529;-66
2022/01/11 07:15:06;;;;;;;17.87;8.38;;;;;;;-2.33;75.92;101456.22;5590782;31;33886;-67
2022/01/11 07:18:10;;;;;;;17.73;8.80;;;;;;;-2.26;75.54;101455.06;5590388;31;34690;-67
2022/01/11 07:21:13;;;;;;;18.15;8.27;;;;;;;-2.23;75.09;101463.56;5590437;31;34025;-66
2022/01/11 07:24:17;;;;;;;15.93;7.53;;;;;;;-2.28;75.32;101465.53;5590253;31;34623;-67
2022/01/11 07:27:21;;;;;;;18.95;7.62;;;;;;;-2.33;76.08;101466.59;5590428;31;34667;-68
2022/01/11 07:30:25;;;;;;;18.73;7.90;;;;;;;-2.36;76.06;101471.91;5590233;31;33997;-67
2022/01/11 07:33:28;;;;;;;15.88;7.60;;;;;;;-2.28;75.80;101462.94;5590176;31;34178;-67
2022/01/11 07:36:31;;;;;;;17.23;8.20;;;;;;;-2.26;76.03;101471.50;5589940;31;35182;-67
2022/01/11 07:39:34;;;;;;;16.83;7.62;;;;;;;-2.19;75.62;101474.72;5589783;31;34314;-67
2022/01/11 07:42:37;;;;;;;15.57;7.35;;;;;;;-2.12;74.74;101473.53;5590263;31;34769;-67
2022/01/11 07:45:45;;;;;;;15.23;7.07;;;;;;;-1.94;73.42;101483.25;5590357;31;34104;-67
2022/01/11 07:48:48;;;;;;;14.45;7.07;;;;;;;-1.85;73.00;101480.25;5590251;31;33916;-67
2022/01/11 07:51:51;;;;;;;15.18;7.68;;;;;;;-1.79;72.68;101482.59;5590262;31;34658;-66
2022/01/11 07:54:54;;;;;;;17.85;7.75;;;;;;;-1.73;72.42;101489.31;5590269;31;34564;-67
2022/01/11 07:57:57;;;;;;;18.05;8.55;;;;;;;-1.66;70.94;101487.31;5589702;31;34622;-67
2022/01/11 08:01:00;;;;;;;16.98;8.10;;;;;;;-1.61;70.69;101480.16;5590432;31;33853;-67
2022/01/11 08:04:06;;;;;;;17.70;7.65;;;;;;;-1.57;70.40;101492.13;5590494;31;34115;-67
2022/01/11 08:07:15;;;;;;;13.57;7.00;;;;;;;-1.57;70.48;101497.34;5590172;31;34099;-67
2022/01/11 08:10:19;;;;;;;15.18;7.37;;;;;;;-1.50;70.42;101499.59;5590533;31;33979;-67
2022/01/11 08:13:26;;;;;;;18.33;7.68;;;;;;;-1.44;70.30;101507.16;5589639;31;35279;-66
2022/01/11 08:16:29;;;;;;;16.62;7.03;;;;;;;-1.39;69.59;101512.16;5590183;31;34611;-67
2022/01/11 08:19:33;;;;;;;16.58;8.00;;;;;;;-1.35;69.37;101511.13;5590028;31;33835;-67
2022/01/11 08:22:36;;;;;;;19.00;8.80;;;;;;;-1.30;68.83;101514.38;5590250;31;34029;-67
2022/01/11 08:25:41;;;;;;;18.08;8.52;;;;;;;-1.25;68.67;101512.44;5590161;31;33857;-66
2022/01/11 08:28:44;;;;;;;16.25;7.90;;;;;;;-1.22;68.66;101509.72;5590459;31;34240;-66
2022/01/11 08:31:48;;;;;;;16.92;7.18;;;;;;;-1.20;67.98;101517.44;5589129;31;33313;-66
2022/01/11 08:34:51;;;;;;;18.65;8.30;;;;;;;-1.13;67.43;101524.09;5590287;31;34282;-66
2022/01/11 08:37:54;;;;;;;16.73;8.15;;;;;;;-0.98;67.88;101523.44;5589864;31;34690;-67
2022/01/11 08:40:57;;;;;;;19.62;8.73;;;;;;;-0.96;67.51;101526.81;5589940;31;33872;-67
2022/01/11 08:44:00;;;;;;;19.17;8.40;;;;;;;-1.00;67.20;101527.84;5589382;31;34586;-67
2022/01/11 08:47:03;;;;;;;19.30;8.32;;;;;;;-0.97;67.50;101536.38;5589704;31;34561;-67
2022/01/11 08:50:10;;;;;;;17.15;8.40;;;;;;;-0.96;67.31;101527.66;5589821;31;34546;-67
2022/01/11 08:53:14;;;;;;;23.05;9.00;;;;;;;-0.93;67.47;101526.69;5590011;31;34097;-67
2022/01/11 08:56:17;;;;;;;22.15;8.52;;;;;;;-0.78;66.73;101520.81;5589679;31;33941;-66
2022/01/11 08:59:23;;;;;;;16.70;8.40;;;;;;;-0.77;66.27;101538.13;5589829;31;33890;-67
2022/01/11 09:02:27;;;;;;;21.23;9.50;;;;;;;-0.70;66.16;101534.34;5589729;31;33985;-66
2022/01/11 09:05:31;;;;;;;19.52;8.52;;;;;;;-0.66;65.79;101537.66;5589569;31;34771;-66
2022/01/11 09:08:36;;;;;;;20.17;8.88;;;;;;;-0.62;65.73;101544.41;5589535;31;34743;-67
2022/01/11 09:11:41;;;;;;;28.50;9.90;;;;;;;-0.62;65.55;101550.47;5589587;31;35245;-67
2022/01/11 09:14:45;;;;;;;24.73;10.00;;;;;;;-0.51;65.40;101545.63;5589542;31;34278;-67
2022/01/11 09:17:50;;;;;;;19.87;9.65;;;;;;;-0.47;65.16;101560.22;5589812;31;35132;-66
2022/01/11 09:20:52;;;;;;;16.45;8.00;;;;;;;-0.48;64.57;101555.91;5589847;31;34549;-66
2022/01/11 09:23:55;;;;;;;16.92;8.05;;;;;;;-0.44;63.74;101562.66;5589504;31;34652;-66
2022/01/11 09:27:03;;;;;;;19.62;7.95;;;;;;;-0.29;63.59;101549.88;5589741;31;34057;-66
2022/01/11 09:30:08;;;;;;;17.37;7.20;;;;;;;-0.20;62.45;101549.47;5589687;31;34023;-67
2022/01/11 09:33:11;;;;;;;15.00;7.78;;;;;;;-0.21;62.53;101540.78;5589611;31;34665;-67
2022/01/11 09:36:14;;;;;;;17.33;7.85;;;;;;;-0.09;61.56;101537.59;5589756;31;34074;-67
2022/01/11 09:39:20;;;;;;;15.43;7.65;;;;;;;-0.08;61.92;101541.91;5589348;31;33922;-67
2022/01/11 09:42:25;;;;;;;16.27;7.40;;;;;;;0.00;61.40;101526.72;5589617;31;34563;-67
2022/01/11 09:45:28;;;;;;;19.30;7.97;;;;;;;0.11;61.27;101528.84;5589308;31;33892;-68
2022/01/11 09:48:36;;;;;;;17.20;7.05;;;;;;;0.16;61.65;101536.44;5588881;31;34649;-66
2022/01/11 09:51:39;;;;;;;15.07;7.70;;;;;;;0.25;60.96;101529.00;5589086;31;34660;-66
2022/01/11 09:54:46;;;;;;;13.38;6.80;;;;;;;0.41;60.73;101529.97;5589109;31;34072;-67
2022/01/11 09:57:49;;;;;;;16.35;7.10;;;;;;;0.51;60.81;101534.72;5589303;31;33998;-66
2022/01/11 10:01:05;;;;;;;13.65;6.22;;;;;;;0.52;60.42;101526.84;5588339;31;34742;-67
2022/01/11 10:04:14;;;;;;;15.15;6.45;;;;;;;0.65;59.63;101529.66;5589446;31;34546;-66
2022/01/11 10:07:17;;;;;;;13.62;6.05;;;;;;;0.70;59.57;101523.31;5588976;31;34073;-66
2022/01/11 10:10:23;;;;;;;12.57;6.20;;;;;;;0.71;59.28;101521.53;5588947;31;34012;-66
2022/01/11 10:13:40;;;;;;;13.18;6.97;;;;;;;0.78;59.35;101523.75;5588898;31;34001;-66
2022/01/11 10:16:45;;;;;;;14.68;6.65;;;;;;;0.86;59.47;101512.94;5588584;31;34345;-66
2022/01/11 10:20:09;;;;;;;12.73;5.82;;;;;;;0.91;58.71;101515.31;5589084;31;33965;-66
2022/01/11 10:23:13;;;;;;;13.62;6.70;;;;;;;0.89;59.04;101512.75;5588647;31;34083;-66
2022/01/11 10:26:43;;;;;;;12.10;5.93;;;;;;;1.03;59.31;101514.66;5588440;31;34724;-66
2022/01/11 10:29:55;;;;;;;11.82;5.62;;;;;;;1.06;58.50;101520.59;5588469;31;34257;-67
2022/01/11 10:33:01;;;;;;;14.75;6.18;;;;;;;1.06;58.35;101523.22;5588408;31;34787;-67
2022/01/11 10:36:05;;;;;;;11.23;5.85;;;;;;;1.07;58.48;101517.03;5589014;31;34015;-67
2022/01/11 10:39:32;;;;;;;11.45;5.60;;;;;;;1.07;58.23;101517.03;5588116;31;34862;-67
2022/01/11 10:42:39;;;;;;;14.00;5.80;;;;;;;1.13;58.60;101527.19;5588465;31;34064;-66
2022/01/11 10:45:52;;;;;;;11.68;6.05;;;;;;;1.14;58.33;101518.41;5588054;31;33897;-67
2022/01/11 10:48:55;;;;;;;12.30;5.57;;;;;;;1.27;57.62;101519.44;5587744;31;34045;-67
2022/01/11 10:52:19;;;;;;;13.30;5.60;;;;;;;1.30;58.21;101524.53;5587868;31;34029;-66
2022/01/11 10:55:26;;;;;;;13.23;6.37;;;;;;;1.29;58.32;101517.63;5588655;31;33470;-66
2022/01/11 10:58:36;;;;;;;15.52;5.72;;;;;;;1.38;57.97;101523.28;5587951;31;34179;-66
2022/01/11 11:01:43;;;;;;;10.43;5.60;;;;;;;1.33;57.67;101527.91;5588035;31;34428;-66
2022/01/11 11:04:46;;;;;;;12.55;6.55;;;;;;;1.43;57.98;101519.50;5588152;31;33871;-67
2022/01/11 11:08:11;;;;;;;13.75;5.87;;;;;;;1.43;57.74;101514.25;5590128;31;34597;-67
2022/01/11 11:11:20;;;;;;;8.05;4.47;;;;;;;1.41;57.70;101515.25;5590764;31;34066;-67
2022/01/11 11:14:53;;;;;;;12.70;5.75;;;;;;;1.46;58.07;101515.84;5591049;31;34769;-67
2022/01/11 11:17:56;;;;;;;10.43;5.00;;;;;;;1.61;57.44;101515.88;5590803;31;34704;-66
2022/01/11 11:21:19;;;;;;;10.57;5.30;;;;;;;1.61;57.07;101513.28;5590593;31;33907;-66
2022/01/11 11:24:21;;;;;;;17.17;5.53;;;;;;;1.67;57.25;101514.72;5590483;31;34203;-67
2022/01/11 11:27:25;;;;;;;11.38;5.50;;;;;;;1.68;56.72;101506.78;5590381;31;34848;-66
2022/01/11 11:30:28;;;;;;;12.55;5.37;;;;;;;1.71;57.10;101509.22;5590548;31;34098;-67
2022/01/11 11:33:31;;;;;;;13.52;5.47;;;;;;;1.75;56.91;101509.91;5590433;31;35187;-67
2022/01/11 11:36:35;;;;;;;11.55;5.97;;;;;;;1.83;57.28;101504.25;5590408;31;34595;-67
2022/01/11 11:39:38;;;;;;;12.52;5.62;;;;;;;2.02;56.96;101505.78;5590483;31;33976;-67
2022/01/11 11:42:42;;;;;;;12.30;6.28;;;;;;;1.96;57.06;101500.03;5589438;31;34248;-66
2022/01/11 11:45:45;;;;;;;13.50;5.75;;;;;;;1.89;57.08;101503.94;5589966;31;34553;-68
2022/01/11 11:48:55;;;;;;;11.45;6.05;;;;;;;2.04;56.79;101498.66;5589934;31;34611;-66
2022/01/11 11:52:14;;;;;;;10.40;5.40;;;;;;;2.02;56.61;101507.53;5590011;31;34657;-66
2022/01/11 11:55:31;;;;;;;11.88;5.90;;;;;;;1.99;56.71;101502.47;5589729;31;34123;-66
2022/01/11 11:58:42;;;;;;;13.85;6.57;;;;;;;2.08;56.09;101496.75;5590285;31;34639;-67
2022/01/11 12:01:47;;;;;;;10.68;5.72;;;;;;;2.10;56.56;101500.09;5589427;31;34009;-66
2022/01/11 12:04:54;;;;;;;15.77;6.40;;;;;;;2.00;56.44;101491.06;5590204;31;34535;-67
2022/01/11 12:07:57;;;;;;;15.23;5.85;;;;;;;2.03;56.75;101504.00;5590062;31;33915;-67
2022/01/11 12:11:10;;;;;;;11.35;5.32;;;;;;;2.10;56.31;101498.31;5590073;31;34631;-67
2022/01/11 12:14:34;;;;;;;15.35;5.90;;;;;;;1.97;56.30;101497.34;5589349;31;34084;-67
2022/01/11 12:17:39;;;;;;;14.23;5.35;;;;;;;2.26;55.86;101506.16;5589429;31;33950;-66
2022/01/11 12:20:58;;;;;;;9.88;5.20;;;;;;;2.69;54.74;101506.28;5589558;31;33906;-67
2022/01/11 12:24:00;;;;;;;10.43;5.28;;;;;;;3.00;53.31;101498.31;5590328;31;35183;-67
2022/01/11 12:27:04;;;;;;;14.00;5.97;;;;;;;3.01;53.24;101498.19;5589978;31;33917;-67
2022/01/11 12:30:08;;;;;;;13.62;5.62;;;;;;;3.26;52.35;101508.06;5589956;31;34383;-67
2022/01/11 12:33:18;;;;;;;11.15;5.25;;;;;;;3.18;52.12;101491.97;5589729;31;34057;-67
2022/01/11 12:36:21;;;;;;;11.00;4.93;;;;;;;3.18;52.20;101497.19;5590117;31;34173;-67
2022/01/11 12:39:26;;;;;;;11.73;5.30;;;;;;;3.00;52.92;101500.94;5589909;31;34482;-67
2022/01/11 12:42:29;;;;;;;12.55;5.20;;;;;;;3.32;52.19;101498.97;5590161;31;34096;-67
2022/01/11 12:45:50;;;;;;;8.60;4.60;;;;;;;3.39;51.57;101508.13;5589687;31;34855;-68
2022/01/11 12:48:57;;;;;;;10.00;5.05;;;;;;;3.56;51.26;101509.72;5589595;31;34010;-68
2022/01/11 12:52:09;;;;;;;10.43;4.95;;;;;;;3.85;49.99;101508.75;5589832;31;32421;-67
2022/01/11 12:55:13;;;;;;;12.23;5.60;;;;;;;3.69;50.19;101513.25;5589524;31;33983;-67
2022/01/11 12:58:17;;;;;;;12.05;5.30;;;;;;;3.48;51.11;101516.31;5589636;31;34649;-68
2022/01/11 13:01:20;;;;;;;15.50;5.30;;;;;;;3.32;51.24;101509.47;5588915;31;34062;-68
2022/01/11 13:05:04;;;;;;;10.32;5.45;;;;;;;3.24;51.28;101511.72;5589609;31;34709;-67
2022/01/11 13:08:08;;;;;;;11.45;5.60;;;;;;;3.33;51.27;101511.16;5589516;31;33993;-67
2022/01/11 13:11:17;;;;;;;10.10;4.68;;;;;;;3.25;51.16;101518.63;5589315;31;33957;-67
2022/01/11 13:14:32;;;;;;;11.55;4.60;;;;;;;3.04;51.73;101510.31;5589454;31;34273;-67
2022/01/11 13:17:55;;;;;;;14.50;4.82;;;;;;;3.05;51.95;101514.59;5589456;31;35410;-66
2022/01/11 13:21:22;;;;;;;10.52;5.28;;;;;;;2.91;52.53;101522.44;5588575;31;34034;-67
2022/01/11 13:24:25;;;;;;;11.75;4.85;;;;;;;2.81;52.54;101519.50;5589733;31;34631;-67
2022/01/11 13:27:28;;;;;;;9.73;4.70;;;;;;;2.73;53.07;101513.88;5589373;31;33992;-67
2022/01/11 13:30:40;;;;;;;11.60;5.32;;;;;;;2.68;53.42;101523.78;5589048;31;34710;-66
2022/01/11 13:33:51;;;;;;;10.50;4.53;;;;;;;2.63;53.08;101515.34;5588935;31;33924;-66
2022/01/11 13:36:56;;;;;;;8.48;5.00;;;;;;;2.70;53.22;101523.72;5589582;31;34623;-66
2022/01/11 13:39:59;;;;;;;12.98;5.47;;;;;;;2.62;53.12;101519.75;5588242;31;33983;-67
2022/01/11 13:43:08;;;;;;;11.95;5.18;;;;;;;2.54;53.26;101524.59;5589684;31;33929;-66
2022/01/11 13:46:24;;;;;;;12.05;4.95;;;;;;;2.58;53.44;101522.63;5589229;31;34303;-66
2022/01/11 13:49:30;;;;;;;12.02;5.05;;;;;;;2.58;53.36;101527.88;5588960;31;34077;-66
2022/01/11 13:52:33;;;;;;;10.43;5.25;;;;;;;2.56;53.51;101532.37;5589559;31;34338;-66
2022/01/11 13:55:36;;;;;;;11.68;5.70;;;;;;;2.47;53.32;101533.72;5588343;31;33995;-66
2022/01/11 13:58:46;;;;;;;12.95;5.30;;;;;;;2.51;53.73;101537.03;5589112;31;34480;-66
2022/01/11 14:02:21;;;;;;;9.55;4.78;;;;;;;2.50;53.00;101530.09;5588947;31;34079;-67
2022/01/11 14:05:29;;;;;;;11.95;4.72;;;;;;;2.55;52.91;101531.53;5589257;31;34166;-66
2022/01/11 14:08:32;;;;;;;10.18;4.65;;;;;;;2.58;52.84;101522.63;5588958;31;33907;-67
2022/01/11 14:11:37;;;;;;;8.50;4.50;;;;;;;2.54;52.84;101534.22;5588640;31;34775;-66
2022/01/11 14:14:40;;;;;;;10.90;4.85;;;;;;;2.54;53.17;101536.84;5588864;31;35270;-67
2022/01/11 14:17:43;;;;;;;12.40;4.25;;;;;;;2.48;52.82;101532.78;5588707;31;34663;-66
2022/01/11 14:20:46;;;;;;;10.70;5.18;;;;;;;2.51;53.03;101540.50;5588553;31;34654;-67